首页
METAR-TAF:

METAR-TAF

机场 :

Cape Girardeau, 密蘇里州, 美国

纬度: 37-13-32N, 经度: 089-34-42W, 海拔: 104米

当前天气观测

该预报发布于1小时和5分钟前的09:53 UTC
风速6节,风向西
温度 -3°C
湿度 86%
气压 1024 hPa
能見度: 16.1公里
天空无云

METAR: KCGI 270953Z AUTO 27006KT 10SM CLR M03/M05 A3025 RMK AO2 SLP246 T10281050

时间: 04:58 (10:58 UTC)

预报

该预报发布于5小时和38分钟前的05:20 UTC
预报有效从27日的 06点(UTC)到 28日的 06点(UTC)
风速6节,风向西转西北
能見度: 10公里
少量云层高于6000英尺
从 27日的 0900点(UTC)
风速5节,风向西转西北
能見度: 10公里
天空无云
从 27日的 1400点(UTC)
风速8节,风向西
能見度: 10公里
天空无云
从 27日的 2200点(UTC)
风速10节,风向西南
能見度: 10公里
散云层高于12000英尺
从 28日的 0200点(UTC)
风速7节,风向西南
能見度: 10公里
阴天层高于6000英尺

TAF: KCGI 270520Z 2706/2806 30006KT P6SM FEW060 FM270900 29005KT P6SM SKC FM271400 26008KT P6SM SKC FM272200 23010KT P6SM SCT120 FM280200 22007KT P6SM OVC060

超过4000个机场的气象观测和天气预报(METAR&TAF报告)。

可查询的气象台以黄色和红色小点在地图上表示。

将鼠标移到小点上方,可查看气象台名称。

然后点击查看天气观测和预报。

如需切换地图:点击带黑十字的绿色按钮放大地图;点击带横线的绿色按钮缩小地图;或者点击绿色箭头查看邻近地区的地图。


METAR-TAF: